sensor_id;sensor_type;location;lat;lon;timestamp;pressure;altitude;pressure_sealevel;temperature;humidity
62708;BME280;48769;51.624;5.886;2023-04-25T00:01:22;100891.53;;;6.25;100.00
62708;BME280;48769;51.624;5.886;2023-04-25T00:03:48;100893.91;;;6.33;100.00
62708;BME280;48769;51.624;5.886;2023-04-25T00:06:13;100886.03;;;6.33;100.00
62708;BME280;48769;51.624;5.886;2023-04-25T00:08:39;100898.34;;;6.31;100.00
62708;BME280;48769;51.624;5.886;2023-04-25T00:11:05;100894.06;;;6.28;100.00
62708;BME280;48769;51.624;5.886;2023-04-25T00:13:30;100899.09;;;6.35;100.00
62708;BME280;48769;51.624;5.886;2023-04-25T00:15:55;100896.38;;;6.38;100.00
62708;BME280;48769;51.624;5.886;2023-04-25T00:18:25;100896.50;;;6.35;100.00
62708;BME280;48769;51.624;5.886;2023-04-25T00:20:53;100899.78;;;6.40;100.00
62708;BME280;48769;51.624;5.886;2023-04-25T00:23:19;100902.59;;;6.35;100.00
62708;BME280;48769;51.624;5.886;2023-04-25T00:25:50;100913.94;;;6.36;100.00
62708;BME280;48769;51.624;5.886;2023-04-25T00:28:15;100912.16;;;6.36;100.00
62708;BME280;48769;51.624;5.886;2023-04-25T00:30:42;100910.09;;;6.46;100.00
62708;BME280;48769;51.624;5.886;2023-04-25T00:33:07;100908.97;;;6.53;100.00
62708;BME280;48769;51.624;5.886;2023-04-25T00:35:33;100908.97;;;6.53;100.00
62708;BME280;48769;51.624;5.886;2023-04-25T00:37:59;100919.53;;;6.51;100.00
62708;BME280;48769;51.624;5.886;2023-04-25T00:40:24;100916.00;;;6.52;100.00
62708;BME280;48769;51.624;5.886;2023-04-25T00:42:51;100916.75;;;6.56;100.00
62708;BME280;48769;51.624;5.886;2023-04-25T00:45:18;100905.28;;;6.59;100.00
62708;BME280;48769;51.624;5.886;2023-04-25T00:47:43;100907.88;;;6.60;100.00
62708;BME280;48769;51.624;5.886;2023-04-25T00:50:09;100912.00;;;6.67;100.00
62708;BME280;48769;51.624;5.886;2023-04-25T00:52:35;100914.78;;;6.63;100.00
62708;BME280;48769;51.624;5.886;2023-04-25T00:55:00;100912.31;;;6.58;100.00
62708;BME280;48769;51.624;5.886;2023-04-25T00:57:26;100908.78;;;6.59;100.00
62708;BME280;48769;51.624;5.886;2023-04-25T00:59:52;100911.28;;;6.62;100.00
62708;BME280;48769;51.624;5.886;2023-04-25T01:02:18;100905.25;;;6.60;100.00
62708;BME280;48769;51.624;5.886;2023-04-25T01:04:44;100918.69;;;6.51;100.00
62708;BME280;48769;51.624;5.886;2023-04-25T01:07:09;100912.59;;;6.50;100.00
62708;BME280;48769;51.624;5.886;2023-04-25T01:09:35;100915.03;;;6.55;100.00
62708;BME280;48769;51.624;5.886;2023-04-25T01:12:00;100916.00;;;6.52;100.00
62708;BME280;48769;51.624;5.886;2023-04-25T01:14:26;100913.53;;;6.48;100.00
62708;BME280;48769;51.624;5.886;2023-04-25T01:16:51;100917.19;;;6.44;100.00
62708;BME280;48769;51.624;5.886;2023-04-25T01:19:18;100920.69;;;6.43;100.00
62708;BME280;48769;51.624;5.886;2023-04-25T01:21:44;100911.19;;;6.40;100.00
62708;BME280;48769;51.624;5.886;2023-04-25T01:24:10;100921.72;;;6.39;100.00
62708;BME280;48769;51.624;5.886;2023-04-25T01:26:36;100922.63;;;6.38;100.00
62708;BME280;48769;51.624;5.886;2023-04-25T01:29:04;100917.38;;;6.38;100.00
62708;BME280;48769;51.624;5.886;2023-04-25T01:31:30;100913.09;;;6.35;100.00
62708;BME280;48769;51.624;5.886;2023-04-25T01:33:56;100922.19;;;6.23;100.00
62708;BME280;48769;51.624;5.886;2023-04-25T01:36:21;100928.19;;;6.27;100.00
62708;BME280;48769;51.624;5.886;2023-04-25T01:38:47;100920.69;;;6.16;100.00
62708;BME280;48769;51.624;5.886;2023-04-25T01:41:13;100924.91;;;6.20;100.00
62708;BME280;48769;51.624;5.886;2023-04-25T01:43:38;100925.75;;;6.22;100.00
62708;BME280;48769;51.624;5.886;2023-04-25T01:46:04;100932.66;;;6.25;100.00
62708;BME280;48769;51.624;5.886;2023-04-25T01:48:29;100929.97;;;6.26;100.00
62708;BME280;48769;51.624;5.886;2023-04-25T01:50:55;100933.50;;;6.25;100.00
62708;BME280;48769;51.624;5.886;2023-04-25T01:53:20;100935.59;;;6.14;100.00
62708;BME280;48769;51.624;5.886;2023-04-25T01:55:45;100938.34;;;6.11;100.00
62708;BME280;48769;51.624;5.886;2023-04-25T01:58:11;100936.78;;;6.05;100.00
62708;BME280;48769;51.624;5.886;2023-04-25T02:00:38;100940.41;;;6.01;100.00
62708;BME280;48769;51.624;5.886;2023-04-25T02:03:04;100939.59;;;5.98;100.00
62708;BME280;48769;51.624;5.886;2023-04-25T02:05:37;100944.84;;;5.98;100.00
62708;BME280;48769;51.624;5.886;2023-04-25T02:08:05;100956.41;;;5.91;100.00
62708;BME280;48769;51.624;5.886;2023-04-25T02:10:31;100953.03;;;5.87;100.00
62708;BME280;48769;51.624;5.886;2023-04-25T02:12:57;100946.84;;;5.90;100.00
62708;BME280;48769;51.624;5.886;2023-04-25T02:15:22;100946.09;;;5.84;100.00
62708;BME280;48769;51.624;5.886;2023-04-25T02:17:47;100954.84;;;5.85;100.00
62708;BME280;48769;51.624;5.886;2023-04-25T02:20:14;100953.88;;;5.88;100.00
62708;BME280;48769;51.624;5.886;2023-04-25T02:22:41;100955.53;;;5.92;100.00
62708;BME280;48769;51.624;5.886;2023-04-25T02:25:07;100951.16;;;5.91;100.00
62708;BME280;48769;51.624;5.886;2023-04-25T02:27:32;100950.28;;;5.92;100.00
62708;BME280;48769;51.624;5.886;2023-04-25T02:29:58;100955.63;;;5.89;100.00
62708;BME280;48769;51.624;5.886;2023-04-25T02:32:23;100951.41;;;5.83;100.00
62708;BME280;48769;51.624;5.886;2023-04-25T02:34:48;100954.16;;;5.78;100.00
62708;BME280;48769;51.624;5.886;2023-04-25T02:37:14;100954.16;;;5.78;100.00
62708;BME280;48769;51.624;5.886;2023-04-25T02:39:39;100955.72;;;5.85;100.00
62708;BME280;48769;51.624;5.886;2023-04-25T02:42:04;100962.84;;;5.80;100.00
62708;BME280;48769;51.624;5.886;2023-04-25T02:44:30;100955.97;;;5.76;100.00
62708;BME280;48769;51.624;5.886;2023-04-25T02:46:55;100957.78;;;5.74;100.00
62708;BME280;48769;51.624;5.886;2023-04-25T02:49:20;100959.59;;;5.72;100.00
62708;BME280;48769;51.624;5.886;2023-04-25T02:51:45;100960.53;;;5.70;100.00
62708;BME280;48769;51.624;5.886;2023-04-25T02:54:11;100953.78;;;5.62;100.00
62708;BME280;48769;51.624;5.886;2023-04-25T02:56:36;100962.56;;;5.60;100.00
62708;BME280;48769;51.624;5.886;2023-04-25T02:59:01;100956.41;;;5.61;100.00
62708;BME280;48769;51.624;5.886;2023-04-25T03:01:27;100967.94;;;5.55;100.00
62708;BME280;48769;51.624;5.886;2023-04-25T03:03:52;100963.59;;;5.54;100.00
62708;BME280;48769;51.624;5.886;2023-04-25T03:06:17;100959.31;;;5.52;100.00
62708;BME280;48769;51.624;5.886;2023-04-25T03:08:43;100968.16;;;5.48;100.00
62708;BME280;48769;51.624;5.886;2023-04-25T03:11:08;100963.84;;;5.47;100.00
62708;BME280;48769;51.624;5.886;2023-04-25T03:13:33;100965.72;;;5.42;100.00
62708;BME280;48769;51.624;5.886;2023-04-25T03:16:00;100964.00;;;5.41;100.00
62708;BME280;48769;51.624;5.886;2023-04-25T03:18:26;100970.25;;;5.35;100.00
62708;BME280;48769;51.624;5.886;2023-04-25T03:20:51;100974.75;;;5.31;100.00
62708;BME280;48769;51.624;5.886;2023-04-25T03:23:16;100972.19;;;5.28;100.00
62708;BME280;48769;51.624;5.886;2023-04-25T03:25:42;100976.59;;;5.28;100.00
62708;BME280;48769;51.624;5.886;2023-04-25T03:28:07;100972.25;;;5.27;100.00
62708;BME280;48769;51.624;5.886;2023-04-25T03:30:33;100968.75;;;5.26;100.00
62708;BME280;48769;51.624;5.886;2023-04-25T03:32:58;100964.44;;;5.25;100.00
62708;BME280;48769;51.624;5.886;2023-04-25T03:35:24;100971.47;;;5.23;100.00
62708;BME280;48769;51.624;5.886;2023-04-25T03:37:49;100974.13;;;5.22;100.00
62708;BME280;48769;51.624;5.886;2023-04-25T03:40:15;100976.72;;;5.23;100.00
62708;BME280;48769;51.624;5.886;2023-04-25T03:42:43;100975.84;;;5.23;100.00
62708;BME280;48769;51.624;5.886;2023-04-25T03:45:08;100974.97;;;5.22;100.00
62708;BME280;48769;51.624;5.886;2023-04-25T03:47:34;100974.97;;;5.22;100.00
62708;BME280;48769;51.624;5.886;2023-04-25T03:49:59;100983.84;;;5.18;100.00
62708;BME280;48769;51.624;5.886;2023-04-25T03:52:26;100987.28;;;5.20;100.00
62708;BME280;48769;51.624;5.886;2023-04-25T03:54:52;100991.53;;;5.24;100.00
62708;BME280;48769;51.624;5.886;2023-04-25T03:57:17;100989.63;;;5.29;100.00
62708;BME280;48769;51.624;5.886;2023-04-25T03:59:42;100985.03;;;5.37;100.00
62708;BME280;48769;51.624;5.886;2023-04-25T04:02:07;100986.66;;;5.43;100.00
62708;BME280;48769;51.624;5.886;2023-04-25T04:04:33;100986.59;;;5.45;100.00
62708;BME280;48769;51.624;5.886;2023-04-25T04:06:58;100986.41;;;5.51;100.00
62708;BME280;48769;51.624;5.886;2023-04-25T04:09:24;100989.09;;;5.49;100.00
62708;BME280;48769;51.624;5.886;2023-04-25T04:11:49;100989.13;;;5.48;100.00
62708;BME280;48769;51.624;5.886;2023-04-25T04:14:14;100989.94;;;5.50;100.00
62708;BME280;48769;51.624;5.886;2023-04-25T04:16:39;100989.94;;;5.50;100.00
62708;BME280;48769;51.624;5.886;2023-04-25T04:19:05;100987.53;;;5.42;100.00
62708;BME280;48769;51.624;5.886;2023-04-25T04:21:30;100993.72;;;5.39;100.00
62708;BME280;48769;51.624;5.886;2023-04-25T04:23:57;100990.38;;;5.34;100.00
62708;BME280;48769;51.624;5.886;2023-04-25T04:26:23;100997.31;;;5.35;100.00
62708;BME280;48769;51.624;5.886;2023-04-25T04:28:49;101003.47;;;5.34;100.00
62708;BME280;48769;51.624;5.886;2023-04-25T04:31:22;101002.53;;;5.37;100.00
62708;BME280;48769;51.624;5.886;2023-04-25T04:33:47;101005.06;;;5.40;100.00
62708;BME280;48769;51.624;5.886;2023-04-25T04:36:13;101003.25;;;5.42;100.00
62708;BME280;48769;51.624;5.886;2023-04-25T04:38:39;101006.69;;;5.44;100.00
62708;BME280;48769;51.624;5.886;2023-04-25T04:41:05;101006.63;;;5.46;100.00
62708;BME280;48769;51.624;5.886;2023-04-25T04:43:30;101011.00;;;5.47;100.00
62708;BME280;48769;51.624;5.886;2023-04-25T04:45:57;101017.09;;;5.47;100.00
62708;BME280;48769;51.624;5.886;2023-04-25T04:48:23;101024.03;;;5.48;100.00
62708;BME280;48769;51.624;5.886;2023-04-25T04:50:48;101020.47;;;5.51;100.00
62708;BME280;48769;51.624;5.886;2023-04-25T04:53:14;101025.72;;;5.51;100.00
62708;BME280;48769;51.624;5.886;2023-04-25T04:55:39;101029.25;;;5.50;100.00
62708;BME280;48769;51.624;5.886;2023-04-25T04:58:06;101038.81;;;5.51;100.00
62708;BME280;48769;51.624;5.886;2023-04-25T05:00:32;101044.16;;;5.48;100.00
62708;BME280;48769;51.624;5.886;2023-04-25T05:02:58;101044.16;;;5.48;100.00
62708;BME280;48769;51.624;5.886;2023-04-25T05:05:23;101038.88;;;5.49;100.00
62708;BME280;48769;51.624;5.886;2023-04-25T05:07:48;101048.47;;;5.49;100.00
62708;BME280;48769;51.624;5.886;2023-04-25T05:10:14;101049.22;;;5.54;100.00
62708;BME280;48769;51.624;5.886;2023-04-25T05:12:40;101053.31;;;5.64;100.00
62708;BME280;48769;51.624;5.886;2023-04-25T05:15:06;101061.75;;;5.75;100.00
62708;BME280;48769;51.624;5.886;2023-04-25T05:17:31;101060.50;;;5.89;100.00
62708;BME280;48769;51.624;5.886;2023-04-25T05:19:57;101063.41;;;6.09;100.00
62708;BME280;48769;51.624;5.886;2023-04-25T05:22:23;101070.00;;;6.22;100.00
62708;BME280;48769;51.624;5.886;2023-04-25T05:24:48;101066.28;;;6.29;100.00
62708;BME280;48769;51.624;5.886;2023-04-25T05:27:15;101077.44;;;6.38;100.00
62708;BME280;48769;51.624;5.886;2023-04-25T05:29:41;101081.84;;;6.36;100.00
62708;BME280;48769;51.624;5.886;2023-04-25T05:32:06;101080.16;;;6.35;100.00
62708;BME280;48769;51.624;5.886;2023-04-25T05:34:35;101081.78;;;6.39;100.00
62708;BME280;48769;51.624;5.886;2023-04-25T05:37:01;101086.84;;;6.45;100.00
62708;BME280;48769;51.624;5.886;2023-04-25T05:39:27;101083.00;;;6.55;100.00
62708;BME280;48769;51.624;5.886;2023-04-25T05:41:52;101085.69;;;6.53;100.00
62708;BME280;48769;51.624;5.886;2023-04-25T05:44:18;101093.59;;;6.52;100.00
62708;BME280;48769;51.624;5.886;2023-04-25T05:46:44;101096.31;;;6.49;100.00
62708;BME280;48769;51.624;5.886;2023-04-25T05:49:09;101096.97;;;6.57;100.00
62708;BME280;48769;51.624;5.886;2023-04-25T05:51:35;101095.13;;;6.59;100.00
62708;BME280;48769;51.624;5.886;2023-04-25T05:54:00;101104.75;;;6.60;100.00
62708;BME280;48769;51.624;5.886;2023-04-25T05:56:25;101101.09;;;6.64;100.00
62708;BME280;48769;51.624;5.886;2023-04-25T05:58:51;101103.25;;;6.79;100.00
62708;BME280;48769;51.624;5.886;2023-04-25T06:01:16;101104.81;;;6.85;100.00
62708;BME280;48769;51.624;5.886;2023-04-25T06:03:41;101114.00;;;6.98;100.00
62708;BME280;48769;51.624;5.886;2023-04-25T06:06:11;101105.72;;;7.12;100.00
62708;BME280;48769;51.624;5.886;2023-04-25T06:08:36;101108.09;;;7.45;100.00
62708;BME280;48769;51.624;5.886;2023-04-25T06:11:03;101109.72;;;7.49;100.00
62708;BME280;48769;51.624;5.886;2023-04-25T06:13:29;101112.97;;;7.56;100.00
62708;BME280;48769;51.624;5.886;2023-04-25T06:15:54;101107.44;;;7.63;100.00
62708;BME280;48769;51.624;5.886;2023-04-25T06:18:20;101110.56;;;7.75;100.00
62708;BME280;48769;51.624;5.886;2023-04-25T06:20:48;101113.03;;;7.79;100.00
62708;BME280;48769;51.624;5.886;2023-04-25T06:23:13;101110.94;;;7.89;100.00
62708;BME280;48769;51.624;5.886;2023-04-25T06:25:39;101114.69;;;8.07;100.00
62708;BME280;48769;51.624;5.886;2023-04-25T06:28:04;101117.81;;;8.16;100.00
62708;BME280;48769;51.624;5.886;2023-04-25T06:30:29;101125.00;;;8.35;100.00
62708;BME280;48769;51.624;5.886;2023-04-25T06:32:55;101113.50;;;8.39;100.00
62708;BME280;48769;51.624;5.886;2023-04-25T06:35:20;101122.38;;;8.35;100.00
62708;BME280;48769;51.624;5.886;2023-04-25T06:37:46;101117.72;;;8.43;100.00
62708;BME280;48769;51.624;5.886;2023-04-25T06:40:11;101130.72;;;8.48;100.00
62708;BME280;48769;51.624;5.886;2023-04-25T06:42:36;101125.66;;;8.65;100.00
62708;BME280;48769;51.624;5.886;2023-04-25T06:45:02;101134.41;;;8.65;100.00
62708;BME280;48769;51.624;5.886;2023-04-25T06:47:28;101136.59;;;8.78;100.00
62708;BME280;48769;51.624;5.886;2023-04-25T06:49:54;101126.34;;;8.92;100.00
62708;BME280;48769;51.624;5.886;2023-04-25T06:52:20;101143.56;;;9.01;100.00
62708;BME280;48769;51.624;5.886;2023-04-25T06:54:45;101135.56;;;9.24;100.00
62708;BME280;48769;51.624;5.886;2023-04-25T06:57:10;101130.69;;;9.35;100.00
62708;BME280;48769;51.624;5.886;2023-04-25T06:59:36;101134.34;;;9.33;100.00
62708;BME280;48769;51.624;5.886;2023-04-25T07:02:01;101137.50;;;9.41;100.00
62708;BME280;48769;51.624;5.886;2023-04-25T07:04:27;101146.59;;;9.75;100.00
62708;BME280;48769;51.624;5.886;2023-04-25T07:06:52;101141.22;;;9.98;100.00
62708;BME280;48769;51.624;5.886;2023-04-25T07:09:17;101143.50;;;10.45;100.00
62708;BME280;48769;51.624;5.886;2023-04-25T07:11:43;101136.38;;;10.66;100.00
62708;BME280;48769;51.624;5.886;2023-04-25T07:14:08;101145.91;;;10.69;100.00
62708;BME280;48769;51.624;5.886;2023-04-25T07:16:33;101145.34;;;10.62;100.00
62708;BME280;48769;51.624;5.886;2023-04-25T07:18:59;101146.44;;;10.77;100.00
62708;BME280;48769;51.624;5.886;2023-04-25T07:21:25;101144.13;;;10.88;100.00
62708;BME280;48769;51.624;5.886;2023-04-25T07:23:50;101148.28;;;11.48;100.00
62708;BME280;48769;51.624;5.886;2023-04-25T07:26:16;101142.97;;;11.65;100.00
62708;BME280;48769;51.624;5.886;2023-04-25T07:28:41;101142.84;;;11.14;100.00
62708;BME280;48769;51.624;5.886;2023-04-25T07:31:07;101146.88;;;11.58;100.00
62708;BME280;48769;51.624;5.886;2023-04-25T07:33:33;101135.44;;;12.41;100.00
62708;BME280;48769;51.624;5.886;2023-04-25T07:35:58;101149.91;;;12.35;100.00
62708;BME280;48769;51.624;5.886;2023-04-25T07:38:23;101135.16;;;14.28;100.00
62708;BME280;48769;51.624;5.886;2023-04-25T07:40:49;101139.06;;;15.59;100.00
62708;BME280;48769;51.624;5.886;2023-04-25T07:43:14;101128.41;;;15.59;100.00
62708;BME280;48769;51.624;5.886;2023-04-25T07:45:42;101121.22;;;16.25;100.00
62708;BME280;48769;51.624;5.886;2023-04-25T07:48:08;101130.50;;;16.20;100.00
62708;BME280;48769;51.624;5.886;2023-04-25T07:50:33;101124.59;;;17.14;92.17
62708;BME280;48769;51.624;5.886;2023-04-25T07:52:59;101127.44;;;17.70;72.06
62708;BME280;48769;51.624;5.886;2023-04-25T07:55:24;101135.28;;;17.14;65.17
62708;BME280;48769;51.624;5.886;2023-04-25T07:57:49;101135.53;;;17.81;61.25
62708;BME280;48769;51.624;5.886;2023-04-25T08:00:15;101142.31;;;16.91;57.73
62708;BME280;48769;51.624;5.886;2023-04-25T08:02:40;101138.25;;;17.09;56.92
62708;BME280;48769;51.624;5.886;2023-04-25T08:05:06;101148.94;;;16.23;58.21
62708;BME280;48769;51.624;5.886;2023-04-25T08:07:33;101156.13;;;14.76;61.16
62708;BME280;48769;51.624;5.886;2023-04-25T08:09:59;101172.03;;;13.75;64.14
62708;BME280;48769;51.624;5.886;2023-04-25T08:12:24;101184.13;;;12.88;68.46
62708;BME280;48769;51.624;5.886;2023-04-25T08:14:50;101189.47;;;12.38;73.28
62708;BME280;48769;51.624;5.886;2023-04-25T08:17:15;101192.41;;;12.16;76.84
62708;BME280;48769;51.624;5.886;2023-04-25T08:19:41;101200.44;;;11.80;78.13
62708;BME280;48769;51.624;5.886;2023-04-25T08:22:06;101209.53;;;11.75;80.99
62708;BME280;48769;51.624;5.886;2023-04-25T08:24:31;101210.94;;;11.64;80.11
62708;BME280;48769;51.624;5.886;2023-04-25T08:26:57;101207.88;;;11.72;79.24
62708;BME280;48769;51.624;5.886;2023-04-25T08:29:23;101210.59;;;11.89;74.38
62708;BME280;48769;51.624;5.886;2023-04-25T08:31:50;101207.22;;;13.01;70.80
62708;BME280;48769;51.624;5.886;2023-04-25T08:34:17;101197.00;;;13.57;66.06
62708;BME280;48769;51.624;5.886;2023-04-25T08:36:43;101196.13;;;14.60;61.71
62708;BME280;48769;51.624;5.886;2023-04-25T08:39:08;101178.84;;;14.67;58.77
62708;BME280;48769;51.624;5.886;2023-04-25T08:41:35;101194.44;;;15.14;59.83
62708;BME280;48769;51.624;5.886;2023-04-25T08:44:03;101192.00;;;15.51;57.88
62708;BME280;48769;51.624;5.886;2023-04-25T08:46:30;101194.22;;;15.45;56.57
62708;BME280;48769;51.624;5.886;2023-04-25T08:49:00;101198.06;;;14.99;56.66
62708;BME280;48769;51.624;5.886;2023-04-25T08:51:26;101209.28;;;14.33;59.21
62708;BME280;48769;51.624;5.886;2023-04-25T08:53:53;101209.88;;;13.79;59.84
62708;BME280;48769;51.624;5.886;2023-04-25T08:56:18;101214.94;;;13.38;60.61
62708;BME280;48769;51.624;5.886;2023-04-25T08:58:48;101214.16;;;13.04;60.74
62708;BME280;48769;51.624;5.886;2023-04-25T09:01:14;101222.28;;;12.85;62.01
62708;BME280;48769;51.624;5.886;2023-04-25T09:03:39;101213.88;;;12.93;59.94
62708;BME280;48769;51.624;5.886;2023-04-25T09:06:05;101218.00;;;12.82;58.79
62708;BME280;48769;51.624;5.886;2023-04-25T09:08:30;101225.53;;;13.06;58.79
62708;BME280;48769;51.624;5.886;2023-04-25T09:10:56;101232.03;;;13.48;57.79
62708;BME280;48769;51.624;5.886;2023-04-25T09:13:26;101227.97;;;13.42;56.93
62708;BME280;48769;51.624;5.886;2023-04-25T09:15:56;101257.69;;;13.63;59.50
62708;BME280;48769;51.624;5.886;2023-04-25T09:18:32;101241.63;;;13.50;57.43
62708;BME280;48769;51.624;5.886;2023-04-25T09:21:09;101241.78;;;13.16;54.54
62708;BME280;48769;51.624;5.886;2023-04-25T09:23:44;101247.28;;;13.28;57.19
62708;BME280;48769;51.624;5.886;2023-04-25T09:26:09;101254.81;;;13.20;57.39
62708;BME280;48769;51.624;5.886;2023-04-25T09:28:35;101248.66;;;13.04;57.51
62708;BME280;48769;51.624;5.886;2023-04-25T09:31:02;101254.69;;;12.90;58.28
62708;BME280;48769;51.624;5.886;2023-04-25T09:33:29;101269.47;;;12.78;58.40
62708;BME280;48769;51.624;5.886;2023-04-25T09:36:01;101260.38;;;12.67;57.91
62708;BME280;48769;51.624;5.886;2023-04-25T09:38:30;101265.38;;;12.05;59.00
62708;BME280;48769;51.624;5.886;2023-04-25T09:40:55;101278.63;;;12.05;60.33
62708;BME280;48769;51.624;5.886;2023-04-25T09:43:24;101278.38;;;11.92;60.84
62708;BME280;48769;51.624;5.886;2023-04-25T09:45:51;101284.16;;;11.64;61.66
62708;BME280;48769;51.624;5.886;2023-04-25T09:48:19;101288.63;;;11.44;63.19
62708;BME280;48769;51.624;5.886;2023-04-25T09:53:45;101327.94;;;10.95;74.75
62708;BME280;48769;51.624;5.886;2023-04-25T09:56:12;101330.47;;;10.98;76.81
62708;BME280;48769;51.624;5.886;2023-04-25T09:58:39;101328.66;;;10.99;73.34
62708;BME280;48769;51.624;5.886;2023-04-25T10:01:07;101322.81;;;10.92;71.89
62708;BME280;48769;51.624;5.886;2023-04-25T10:03:38;101322.59;;;11.16;69.24
62708;BME280;48769;51.624;5.886;2023-04-25T10:06:12;101326.94;;;11.17;67.78
62708;BME280;48769;51.624;5.886;2023-04-25T10:08:43;101325.44;;;11.30;66.82
62708;BME280;48769;51.624;5.886;2023-04-25T10:11:08;101330.69;;;11.13;67.19
62708;BME280;48769;51.624;5.886;2023-04-25T10:13:35;101334.13;;;11.15;69.83
62708;BME280;48769;51.624;5.886;2023-04-25T10:16:02;101331.41;;;11.35;71.28
62708;BME280;48769;51.624;5.886;2023-04-25T10:18:29;101328.59;;;11.38;71.68
62708;BME280;48769;51.624;5.886;2023-04-25T10:20:56;101334.31;;;11.48;73.77
62708;BME280;48769;51.624;5.886;2023-04-25T10:23:23;101327.81;;;11.91;72.31
62708;BME280;48769;51.624;5.886;2023-04-25T10:25:50;101330.13;;;11.99;73.00
62708;BME280;48769;51.624;5.886;2023-04-25T10:28:17;101334.31;;;12.03;77.18
62708;BME280;48769;51.624;5.886;2023-04-25T10:30:58;101318.50;;;12.36;72.71
62708;BME280;48769;51.624;5.886;2023-04-25T10:33:50;101317.66;;;12.36;70.00
62708;BME280;48769;51.624;5.886;2023-04-25T10:36:20;101314.94;;;12.20;70.12
62708;BME280;48769;51.624;5.886;2023-04-25T10:38:50;101313.84;;;12.42;71.82
62708;BME280;48769;51.624;5.886;2023-04-25T10:41:17;101319.66;;;12.66;73.12
62708;BME280;48769;51.624;5.886;2023-04-25T10:43:45;101308.63;;;12.73;70.56
62708;BME280;48769;51.624;5.886;2023-04-25T10:46:22;101314.97;;;12.86;71.17
62708;BME280;48769;51.624;5.886;2023-04-25T10:49:00;101330.31;;;12.64;73.86
62708;BME280;48769;51.624;5.886;2023-04-25T10:51:29;101328.78;;;11.90;67.30
62708;BME280;48769;51.624;5.886;2023-04-25T10:54:00;101338.38;;;11.74;70.31
62708;BME280;48769;51.624;5.886;2023-04-25T10:56:27;101342.69;;;11.58;73.04
62708;BME280;48769;51.624;5.886;2023-04-25T10:59:12;101341.13;;;11.54;75.90
62708;BME280;48769;51.624;5.886;2023-04-25T11:01:42;101345.91;;;11.45;75.50
62708;BME280;48769;51.624;5.886;2023-04-25T11:04:31;101340.53;;;11.47;75.65
62708;BME280;48769;51.624;5.886;2023-04-25T11:09:28;101351.69;;;11.54;75.01
62708;BME280;48769;51.624;5.886;2023-04-25T11:11:57;101334.38;;;11.65;70.47
62708;BME280;48769;51.624;5.886;2023-04-25T11:14:24;101336.47;;;11.76;69.53
62708;BME280;48769;51.624;5.886;2023-04-25T11:16:53;101320.59;;;11.76;65.47
62708;BME280;48769;51.624;5.886;2023-04-25T11:19:20;101318.19;;;12.08;65.07
62708;BME280;48769;51.624;5.886;2023-04-25T11:21:46;101317.16;;;12.96;62.05
62708;BME280;48769;51.624;5.886;2023-04-25T11:24:11;101298.47;;;13.62;58.09
62708;BME280;48769;51.624;5.886;2023-04-25T11:26:36;101291.13;;;14.42;56.55
62708;BME280;48769;51.624;5.886;2023-04-25T11:29:03;101295.25;;;14.90;54.21
62708;BME280;48769;51.624;5.886;2023-04-25T11:31:29;101295.84;;;14.81;52.91
62708;BME280;48769;51.624;5.886;2023-04-25T11:33:57;101294.31;;;13.88;51.15
62708;BME280;48769;51.624;5.886;2023-04-25T11:36:23;101302.41;;;13.55;52.53
62708;BME280;48769;51.624;5.886;2023-04-25T11:38:50;101312.47;;;13.01;53.90
62708;BME280;48769;51.624;5.886;2023-04-25T11:41:15;101323.00;;;12.69;55.82
62708;BME280;48769;51.624;5.886;2023-04-25T11:43:43;101323.97;;;12.16;57.09
62708;BME280;48769;51.624;5.886;2023-04-25T11:46:08;101346.78;;;12.19;60.45
62708;BME280;48769;51.624;5.886;2023-04-25T11:48:41;101346.88;;;12.17;60.55
62708;BME280;48769;51.624;5.886;2023-04-25T11:51:06;101337.31;;;11.96;62.44
62708;BME280;48769;51.624;5.886;2023-04-25T11:53:32;101345.91;;;12.01;63.89
62708;BME280;48769;51.624;5.886;2023-04-25T11:55:57;101356.81;;;11.95;64.37
62708;BME280;48769;51.624;5.886;2023-04-25T11:58:23;101359.09;;;11.83;65.05
62708;BME280;48769;51.624;5.886;2023-04-25T12:00:48;101366.00;;;12.05;66.54
62708;BME280;48769;51.624;5.886;2023-04-25T12:03:14;101361.75;;;12.20;64.99
62708;BME280;48769;51.624;5.886;2023-04-25T12:05:39;101369.78;;;12.53;65.20
62708;BME280;48769;51.624;5.886;2023-04-25T12:08:15;101353.72;;;12.56;61.78
62708;BME280;48769;51.624;5.886;2023-04-25T12:10:45;101361.78;;;13.21;65.09
62708;BME280;48769;51.624;5.886;2023-04-25T12:13:37;101353.44;;;14.22;57.48
62708;BME280;48769;51.624;5.886;2023-04-25T12:16:03;101344.56;;;14.82;56.09
62708;BME280;48769;51.624;5.886;2023-04-25T12:18:28;101351.59;;;15.26;54.75
62708;BME280;48769;51.624;5.886;2023-04-25T12:20:54;101340.13;;;14.96;52.33
62708;BME280;48769;51.624;5.886;2023-04-25T12:23:28;101345.53;;;14.81;54.90
62708;BME280;48769;51.624;5.886;2023-04-25T12:25:54;101343.16;;;14.76;54.70
62708;BME280;48769;51.624;5.886;2023-04-25T12:28:20;101342.03;;;15.09;55.31
62708;BME280;48769;51.624;5.886;2023-04-25T12:30:53;101330.56;;;15.35;51.31
62708;BME280;48769;51.624;5.886;2023-04-25T12:33:18;101336.38;;;15.42;51.07
62708;BME280;48769;51.624;5.886;2023-04-25T12:35:44;101331.28;;;15.25;50.06
62708;BME280;48769;51.624;5.886;2023-04-25T12:38:09;101319.16;;;15.33;47.28
62708;BME280;48769;51.624;5.886;2023-04-25T12:40:35;101318.41;;;15.31;47.06
62708;BME280;48769;51.624;5.886;2023-04-25T12:43:00;101325.28;;;15.62;47.33
62708;BME280;48769;51.624;5.886;2023-04-25T12:45:25;101326.06;;;15.92;46.54
62708;BME280;48769;51.624;5.886;2023-04-25T12:47:51;101309.94;;;16.20;42.21
62708;BME280;48769;51.624;5.886;2023-04-25T12:50:16;101313.78;;;16.29;41.33
62708;BME280;48769;51.624;5.886;2023-04-25T12:52:41;101313.34;;;16.09;40.38